createdAt,value
2023-03-02T00:00:16.698Z,30.57
2023-03-02T00:03:04.128Z,25.47
2023-03-02T00:05:49.637Z,28.03
2023-03-02T00:08:35.581Z,29.60
2023-03-02T00:11:21.639Z,30.17
2023-03-02T00:14:07.529Z,30.73
2023-03-02T00:16:52.987Z,30.30
2023-03-02T00:19:39.103Z,31.57
2023-03-02T00:22:24.683Z,29.80
2023-03-02T00:25:11.811Z,30.03
2023-03-02T00:27:57.093Z,34.03
2023-03-02T00:30:42.708Z,29.47
2023-03-02T00:33:28.316Z,32.53
2023-03-02T00:36:18.351Z,34.97
2023-03-02T00:39:04.834Z,32.37
2023-03-02T00:41:50.498Z,30.47
2023-03-02T00:44:35.752Z,34.60
2023-03-02T00:47:21.272Z,36.33
2023-03-02T00:50:07.066Z,33.33
2023-03-02T00:52:52.534Z,32.53
2023-03-02T00:55:38.475Z,34.40
2023-03-02T00:58:23.726Z,31.77
2023-03-02T01:01:11.555Z,32.77
2023-03-02T01:03:57.016Z,30.33
2023-03-02T01:06:47.260Z,31.97
2023-03-02T01:09:33.042Z,30.37
2023-03-02T01:12:19.424Z,34.40
2023-03-02T01:15:06.336Z,34.80
2023-03-02T01:17:52.126Z,33.20
2023-03-02T01:24:18.862Z,34.60
2023-03-02T01:27:04.515Z,33.33
2023-03-02T01:29:50.771Z,32.20
2023-03-02T01:32:36.231Z,33.40
2023-03-02T01:35:21.874Z,32.70
2023-03-02T01:38:07.369Z,33.63
2023-03-02T01:40:52.848Z,35.27
2023-03-02T01:43:38.944Z,33.10
2023-03-02T01:46:28.275Z,31.47
2023-03-02T01:49:15.373Z,34.40
2023-03-02T01:52:01.198Z,33.30
2023-03-02T01:54:49.923Z,29.83
2023-03-02T01:57:43.554Z,33.33
2023-03-02T02:00:36.672Z,33.80
2023-03-02T02:03:26.349Z,33.73
2023-03-02T02:06:38.097Z,33.73
2023-03-02T02:09:25.326Z,36.80
2023-03-02T02:12:20.047Z,34.20
2023-03-02T02:17:54.349Z,33.60
2023-03-02T02:20:47.815Z,33.30
2023-03-02T02:23:56.737Z,33.40
2023-03-02T02:26:46.557Z,33.63
2023-03-02T02:29:35.034Z,32.20
2023-03-02T02:32:27.508Z,31.77
2023-03-02T02:35:19.934Z,34.60
2023-03-02T02:38:08.267Z,30.17
2023-03-02T02:41:00.029Z,31.53
2023-03-02T02:43:45.644Z,32.57
2023-03-02T02:46:32.965Z,37.13
2023-03-02T02:49:36.620Z,35.97
2023-03-02T02:52:27.815Z,35.73
2023-03-02T02:55:16.684Z,34.73
2023-03-02T02:58:10.038Z,30.70
2023-03-02T03:00:55.493Z,32.40
2023-03-02T03:03:47.377Z,35.50
2023-03-02T03:06:38.321Z,35.10
2023-03-02T03:09:24.468Z,37.23
2023-03-02T03:12:20.343Z,34.30
2023-03-02T03:15:06.727Z,33.33
2023-03-02T03:17:56.962Z,38.20
2023-03-02T03:20:42.554Z,33.07
2023-03-02T03:23:28.080Z,38.57
2023-03-02T03:26:13.700Z,34.90
2023-03-02T03:28:59.422Z,37.53
2023-03-02T03:31:45.082Z,35.67
2023-03-02T03:34:31.490Z,37.10
2023-03-02T03:37:19.572Z,40.13
2023-03-02T03:40:06.738Z,38.20
2023-03-02T03:42:51.999Z,38.33
2023-03-02T03:45:37.580Z,38.87
2023-03-02T03:48:23.151Z,35.03
2023-03-02T03:51:10.742Z,33.77
2023-03-02T03:54:02.074Z,36.73
2023-03-02T03:56:49.205Z,33.97
2023-03-02T03:59:34.568Z,39.93
2023-03-02T04:02:20.936Z,34.20
2023-03-02T04:05:08.258Z,39.63
2023-03-02T04:07:53.944Z,38.70
2023-03-02T04:10:40.079Z,41.43
2023-03-02T04:13:26.234Z,36.23
2023-03-02T04:16:11.890Z,37.10
2023-03-02T04:18:58.463Z,37.73
2023-03-02T04:21:47.015Z,37.00
2023-03-02T04:24:32.823Z,33.50
2023-03-02T04:27:19.185Z,40.13
2023-03-02T04:30:05.847Z,41.70
2023-03-02T04:32:51.359Z,38.97
2023-03-02T04:35:37.220Z,41.60
2023-03-02T04:38:23.448Z,37.57
2023-03-02T04:41:09.029Z,38.97
2023-03-02T04:43:54.466Z,38.73
2023-03-02T04:46:40.348Z,39.63
2023-03-02T04:49:26.705Z,41.10
2023-03-02T04:52:12.480Z,35.63
2023-03-02T04:54:57.868Z,38.43
2023-03-02T04:57:43.431Z,38.20
2023-03-02T05:00:28.958Z,40.37
2023-03-02T05:03:14.604Z,38.30
2023-03-02T05:06:02.197Z,41.87
2023-03-02T05:08:48.155Z,38.27
2023-03-02T05:11:34.551Z,36.80
2023-03-02T05:14:19.971Z,40.80
2023-03-02T05:17:05.283Z,42.90
2023-03-02T05:19:50.744Z,38.10
2023-03-02T05:22:36.280Z,41.20
2023-03-02T05:25:22.585Z,39.27
2023-03-02T05:28:07.853Z,44.27
2023-03-02T05:30:53.831Z,38.37
2023-03-02T05:33:39.328Z,40.93
2023-03-02T05:36:24.723Z,41.63
2023-03-02T05:39:09.993Z,40.87
2023-03-02T05:41:55.617Z,40.90
2023-03-02T05:44:41.158Z,43.90
2023-03-02T05:47:26.528Z,41.70
2023-03-02T05:50:12.114Z,40.30
2023-03-02T05:52:58.425Z,39.43
2023-03-02T05:55:43.897Z,42.80
2023-03-02T05:58:29.784Z,42.63
2023-03-02T06:01:15.687Z,42.27
2023-03-02T06:04:01.359Z,39.90
2023-03-02T06:06:47.031Z,43.37
2023-03-02T06:09:32.459Z,41.23
2023-03-02T06:12:18.197Z,35.80
2023-03-02T06:15:05.179Z,39.20
2023-03-02T06:17:50.905Z,40.60
2023-03-02T06:20:36.229Z,39.20
2023-03-02T06:23:21.757Z,41.90
2023-03-02T06:26:09.478Z,43.63
2023-03-02T06:28:54.878Z,40.23
2023-03-02T06:31:40.181Z,42.50
2023-03-02T06:34:26.148Z,40.93
2023-03-02T06:37:11.740Z,44.50
2023-03-02T06:39:58.315Z,45.80
2023-03-02T06:42:43.823Z,46.40
2023-03-02T06:45:29.624Z,43.47
2023-03-02T06:48:16.036Z,48.03
2023-03-02T06:51:01.230Z,44.77
2023-03-02T06:53:46.665Z,44.63
2023-03-02T06:56:32.831Z,45.10
2023-03-02T06:59:18.444Z,45.27
2023-03-02T07:02:04.131Z,44.03
2023-03-02T07:04:49.313Z,41.00
2023-03-02T07:07:34.895Z,44.17
2023-03-02T07:10:20.286Z,42.87
2023-03-02T07:13:08.042Z,41.93
2023-03-02T07:15:54.991Z,45.23
2023-03-02T07:18:40.774Z,41.93
2023-03-02T07:21:26.180Z,41.90
2023-03-02T07:24:11.606Z,40.60
2023-03-02T07:26:57.108Z,39.80
2023-03-02T07:29:42.811Z,37.57
2023-03-02T07:32:28.596Z,41.00
2023-03-02T07:35:13.770Z,37.70
2023-03-02T07:37:59.431Z,35.27
2023-03-02T07:40:45.221Z,40.87
2023-03-02T07:43:30.905Z,38.87
2023-03-02T07:46:16.544Z,38.00
2023-03-02T07:49:01.783Z,40.33
2023-03-02T07:51:47.393Z,38.23
2023-03-02T07:54:33.039Z,43.57
2023-03-02T07:57:18.412Z,41.03
2023-03-02T08:00:05.197Z,38.37
2023-03-02T08:02:50.649Z,38.00
2023-03-02T08:05:36.107Z,36.37
2023-03-02T08:08:21.386Z,37.30
2023-03-02T08:11:13.419Z,36.10
2023-03-02T08:14:03.376Z,37.90
2023-03-02T08:16:48.742Z,39.70
2023-03-02T08:19:34.482Z,34.77
2023-03-02T08:22:20.061Z,36.47
2023-03-02T08:25:07.324Z,35.93
2023-03-02T08:27:52.529Z,34.60
2023-03-02T08:30:38.575Z,32.73
2023-03-02T08:33:25.756Z,33.87
2023-03-02T08:36:18.266Z,35.80
2023-03-02T08:39:03.593Z,31.63
2023-03-02T08:41:54.794Z,33.37
2023-03-02T08:44:40.489Z,33.00
2023-03-02T08:47:26.039Z,34.20
2023-03-02T08:50:11.623Z,33.13
2023-03-02T08:52:56.871Z,34.60
2023-03-02T08:55:42.388Z,34.83
2023-03-02T08:58:28.217Z,34.37
2023-03-02T09:01:18.506Z,37.73
2023-03-02T09:04:05.841Z,29.93
2023-03-02T09:06:51.427Z,36.27
2023-03-02T09:09:37.121Z,33.07
2023-03-02T09:12:22.684Z,35.93
2023-03-02T09:15:08.543Z,35.90
2023-03-02T09:17:53.857Z,38.03
2023-03-02T09:20:39.496Z,37.23
2023-03-02T09:23:26.556Z,31.80
2023-03-02T09:26:12.012Z,35.67
2023-03-02T09:28:57.901Z,33.77
2023-03-02T09:31:43.444Z,34.30
2023-03-02T09:34:29.459Z,35.70
2023-03-02T09:37:15.294Z,36.43
2023-03-02T09:40:00.656Z,35.47
2023-03-02T09:42:51.971Z,35.33
2023-03-02T09:46:28.577Z,35.27
2023-03-02T09:49:31.926Z,35.43
2023-03-02T09:52:40.443Z,35.63
2023-03-02T09:55:32.196Z,35.43
2023-03-02T09:58:20.562Z,39.13
2023-03-02T10:01:16.832Z,34.73
2023-03-02T10:04:15.027Z,35.47
2023-03-02T10:07:35.999Z,37.53
2023-03-02T10:10:56.312Z,36.63
2023-03-02T10:13:47.700Z,35.13
2023-03-02T10:16:46.310Z,35.17
2023-03-02T10:19:47.631Z,41.77
2023-03-02T10:22:43.395Z,33.10
2023-03-02T10:25:48.716Z,33.30
2023-03-02T10:28:44.350Z,34.97
2023-03-02T10:31:32.916Z,38.20
2023-03-02T10:34:28.302Z,36.00
2023-03-02T10:37:16.720Z,35.47
2023-03-02T10:40:02.160Z,34.07
2023-03-02T10:42:48.964Z,39.90
2023-03-02T10:45:35.041Z,34.47
2023-03-02T10:48:20.807Z,35.80
2023-03-02T10:51:06.129Z,34.20
2023-03-02T10:54:13.961Z,38.50
2023-03-02T10:57:05.861Z,33.37
2023-03-02T10:59:52.120Z,33.93
2023-03-02T11:02:38.026Z,38.43
2023-03-02T11:05:33.990Z,38.07
2023-03-02T11:08:22.721Z,40.20
2023-03-02T11:11:22.402Z,34.47
2023-03-02T11:14:16.467Z,36.00
2023-03-02T11:17:03.581Z,33.55
2023-03-02T11:19:50.930Z,34.70
2023-03-02T11:22:49.936Z,32.08
2023-03-02T11:25:44.953Z,34.92
2023-03-02T11:28:56.894Z,33.78
2023-03-02T11:31:50.530Z,33.83
2023-03-02T11:34:51.029Z,33.30
2023-03-02T11:37:49.972Z,34.17
2023-03-02T11:40:58.487Z,33.95
2023-03-02T11:43:43.872Z,33.90
2023-03-02T11:46:32.255Z,32.47
2023-03-02T11:49:24.468Z,33.67
2023-03-02T11:52:20.252Z,35.80
2023-03-02T11:55:17.799Z,34.75
2023-03-02T11:58:04.819Z,35.03
2023-03-02T12:00:51.270Z,35.13
2023-03-02T12:03:40.829Z,32.80
2023-03-02T12:06:29.858Z,33.05
2023-03-02T12:09:24.581Z,37.97
2023-03-02T12:12:25.416Z,33.08
2023-03-02T12:15:38.800Z,35.50
2023-03-02T12:18:24.863Z,34.38
2023-03-02T12:21:22.171Z,36.05
2023-03-02T12:24:24.916Z,33.13
2023-03-02T12:27:13.354Z,35.45
2023-03-02T12:30:23.413Z,45.17
2023-03-02T12:33:11.824Z,36.72
2023-03-02T12:36:18.596Z,35.53
2023-03-02T12:39:07.095Z,47.70
2023-03-02T12:42:17.642Z,35.53
2023-03-02T12:45:43.397Z,33.63
2023-03-02T12:48:36.184Z,32.35
2023-03-02T12:51:25.418Z,31.95
2023-03-02T12:54:17.062Z,32.58
2023-03-02T12:57:17.508Z,30.45
2023-03-02T13:00:05.386Z,31.88
2023-03-02T13:02:53.638Z,31.92
2023-03-02T13:05:38.864Z,32.92
2023-03-02T13:08:28.787Z,30.90
2023-03-02T13:11:22.589Z,32.47
2023-03-02T13:14:25.956Z,34.05
2023-03-02T13:17:31.627Z,31.83
2023-03-02T13:20:27.429Z,30.73
2023-03-02T13:23:17.170Z,31.63
2023-03-02T13:26:05.519Z,29.80
2023-03-02T13:29:20.830Z,32.95
2023-03-02T13:32:26.754Z,30.10
2023-03-02T13:35:28.069Z,29.58
2023-03-02T13:38:18.679Z,28.95
2023-03-02T13:41:04.136Z,30.35
2023-03-02T13:43:49.774Z,29.02
2023-03-02T13:46:36.357Z,32.13
2023-03-02T13:49:34.315Z,29.98
2023-03-02T13:52:30.071Z,29.60
2023-03-02T13:55:18.040Z,31.00
2023-03-02T13:58:03.573Z,27.77
2023-03-02T14:00:49.693Z,29.20
2023-03-02T14:03:35.065Z,30.02
2023-03-02T14:06:20.830Z,29.95
2023-03-02T14:09:06.311Z,31.60
2023-03-02T14:11:54.579Z,27.60
2023-03-02T14:14:41.036Z,30.77
2023-03-02T14:17:27.143Z,29.75
2023-03-02T14:20:15.421Z,28.95
2023-03-02T14:23:03.495Z,30.05
2023-03-02T14:25:50.563Z,30.13
2023-03-02T14:28:36.112Z,29.17
2023-03-02T14:31:21.526Z,28.10
2023-03-02T14:34:09.361Z,30.10
2023-03-02T14:36:58.679Z,29.45
2023-03-02T14:39:55.616Z,27.30
2023-03-02T14:42:40.873Z,31.08
2023-03-02T14:45:26.344Z,26.20
2023-03-02T14:48:11.928Z,28.88
2023-03-02T14:50:59.733Z,26.50
2023-03-02T14:53:47.789Z,26.02
2023-03-02T14:56:33.368Z,29.02
2023-03-02T14:59:19.089Z,27.98
2023-03-02T15:02:19.064Z,28.80
2023-03-02T15:05:10.020Z,27.45
2023-03-02T15:07:58.702Z,25.50
2023-03-02T15:10:44.228Z,27.20
2023-03-02T15:13:29.473Z,28.38
2023-03-02T15:16:15.539Z,31.65
2023-03-02T15:19:00.823Z,27.45
2023-03-02T15:21:46.590Z,27.45
2023-03-02T15:24:33.383Z,28.65
2023-03-02T15:27:19.332Z,27.80
2023-03-02T15:30:05.609Z,29.83
2023-03-02T15:32:53.199Z,26.60
2023-03-02T15:35:39.635Z,25.52
2023-03-02T15:38:25.450Z,25.40
2023-03-02T15:41:13.156Z,30.70
2023-03-02T15:43:58.522Z,29.35
2023-03-02T15:46:44.253Z,30.77
2023-03-02T15:49:32.200Z,32.33
2023-03-02T15:52:19.728Z,28.23
2023-03-02T15:55:05.609Z,29.08
2023-03-02T15:57:51.861Z,31.52
2023-03-02T16:00:37.886Z,31.40
2023-03-02T16:03:24.356Z,32.63
2023-03-02T16:06:10.288Z,28.98
2023-03-02T16:08:55.898Z,29.38
2023-03-02T16:11:41.407Z,30.98
2023-03-02T16:14:26.908Z,31.75
2023-03-02T16:17:12.465Z,29.58
2023-03-02T16:19:58.188Z,32.75
2023-03-02T16:22:43.630Z,30.40
2023-03-02T16:25:29.161Z,33.33
2023-03-02T16:28:15.908Z,34.92
2023-03-02T16:31:05.911Z,31.58
2023-03-02T16:33:51.643Z,32.28
2023-03-02T16:36:39.379Z,31.10
2023-03-02T16:39:24.826Z,31.15
2023-03-02T16:42:10.396Z,31.40
2023-03-02T16:44:56.031Z,32.20
2023-03-02T16:47:41.581Z,30.52
2023-03-02T16:50:27.055Z,30.77
2023-03-02T16:53:15.509Z,30.02
2023-03-02T16:56:01.010Z,32.63
2023-03-02T16:58:46.546Z,34.20
2023-03-02T17:01:32.110Z,34.20
2023-03-02T17:04:18.528Z,29.95
2023-03-02T17:07:05.946Z,33.50
2023-03-02T17:09:51.155Z,30.65
2023-03-02T17:12:36.700Z,30.83
2023-03-02T17:15:22.185Z,29.92
2023-03-02T17:18:07.392Z,33.83
2023-03-02T17:20:53.693Z,32.17
2023-03-02T17:23:39.738Z,31.35
2023-03-02T17:26:25.341Z,31.85
2023-03-02T17:29:10.601Z,36.15
2023-03-02T17:31:56.340Z,32.92
2023-03-02T17:34:43.319Z,33.13
2023-03-02T17:37:30.352Z,32.40
2023-03-02T17:40:17.807Z,33.60
2023-03-02T17:43:03.072Z,33.40
2023-03-02T17:45:48.498Z,37.30
2023-03-02T17:48:33.973Z,34.13
2023-03-02T17:51:19.582Z,36.33
2023-03-02T17:54:05.077Z,35.00
2023-03-02T17:56:50.363Z,35.40
2023-03-02T17:59:35.862Z,35.25
2023-03-02T18:06:31.689Z,36.47
2023-03-02T18:09:16.975Z,37.70
2023-03-02T18:12:03.481Z,40.60
2023-03-02T18:14:48.867Z,34.90
2023-03-02T18:17:34.613Z,41.20
2023-03-02T18:20:20.250Z,39.13
2023-03-02T18:23:05.565Z,37.77
2023-03-02T18:25:51.260Z,41.97
2023-03-02T18:28:36.778Z,54.40
2023-03-02T18:31:22.682Z,46.27
2023-03-02T18:34:08.280Z,44.47
2023-03-02T18:36:53.622Z,39.77
2023-03-02T18:39:39.461Z,40.03
2023-03-02T18:42:25.042Z,40.27
2023-03-02T18:45:21.677Z,43.67
2023-03-02T18:48:07.276Z,42.33
2023-03-02T18:50:52.714Z,40.13
2023-03-02T18:53:38.198Z,40.87
2023-03-02T18:56:24.082Z,39.60
2023-03-02T18:59:09.891Z,45.73
2023-03-02T19:01:55.138Z,44.97
2023-03-02T19:04:40.702Z,42.30
2023-03-02T19:07:25.952Z,45.77
2023-03-02T19:10:12.078Z,40.33
2023-03-02T19:12:57.367Z,48.47
2023-03-02T19:15:43.385Z,40.03
2023-03-02T19:18:30.071Z,41.17
2023-03-02T19:21:16.319Z,35.43
2023-03-02T19:24:01.870Z,41.30
2023-03-02T19:26:47.129Z,44.53
2023-03-02T19:29:32.498Z,45.83
2023-03-02T19:32:20.127Z,45.70
2023-03-02T19:35:05.972Z,49.73
2023-03-02T19:37:52.029Z,41.73
2023-03-02T19:40:38.151Z,41.77
2023-03-02T19:43:24.467Z,39.03
2023-03-02T19:46:10.945Z,41.60
2023-03-02T19:48:56.357Z,39.70
2023-03-02T19:51:41.925Z,45.90
2023-03-02T19:54:27.693Z,45.97
2023-03-02T19:57:13.238Z,37.73
2023-03-02T19:59:59.452Z,44.77
2023-03-02T20:02:47.297Z,47.30
2023-03-02T20:05:32.939Z,50.80
2023-03-02T20:08:21.625Z,40.43
2023-03-02T20:11:06.981Z,36.67
2023-03-02T20:13:53.229Z,40.07
2023-03-02T20:16:39.990Z,46.23
2023-03-02T20:19:25.629Z,47.30
2023-03-02T20:22:11.220Z,42.70
2023-03-02T20:24:56.764Z,47.93
2023-03-02T20:27:42.743Z,46.77
2023-03-02T20:30:42.691Z,41.70
2023-03-02T20:33:33.022Z,44.80
2023-03-02T20:36:30.340Z,44.37
2023-03-02T20:39:18.518Z,44.43
2023-03-02T20:42:04.615Z,45.00
2023-03-02T20:44:49.867Z,44.80
2023-03-02T20:47:35.664Z,43.00
2023-03-02T20:50:26.034Z,52.00
2023-03-02T20:53:12.363Z,48.33
2023-03-02T20:55:58.092Z,44.00
2023-03-02T20:58:44.689Z,48.67
2023-03-02T21:01:30.251Z,46.87
2023-03-02T21:04:15.652Z,46.53
2023-03-02T21:07:00.984Z,40.07
2023-03-02T21:09:46.561Z,39.10
2023-03-02T21:12:33.338Z,40.87
2023-03-02T21:15:20.273Z,42.03
2023-03-02T21:18:05.754Z,40.13
2023-03-02T21:20:51.289Z,44.80
2023-03-02T21:23:36.635Z,44.37
2023-03-02T21:26:22.577Z,42.67
2023-03-02T21:29:09.460Z,48.87
2023-03-02T21:31:55.227Z,50.00
2023-03-02T21:34:40.632Z,46.53
2023-03-02T21:37:27.232Z,47.93
2023-03-02T21:40:17.302Z,51.27
2023-03-02T21:43:03.439Z,45.00
2023-03-02T21:45:49.212Z,46.83
2023-03-02T21:48:34.694Z,43.77
2023-03-02T21:51:20.716Z,47.13
2023-03-02T21:54:06.390Z,46.40
2023-03-02T21:56:51.818Z,48.73
2023-03-02T21:59:37.559Z,42.00
2023-03-02T22:02:22.712Z,42.43
2023-03-02T22:05:08.417Z,41.50
2023-03-02T22:07:53.868Z,43.60
2023-03-02T22:10:47.486Z,44.23
2023-03-02T22:13:34.116Z,41.67
2023-03-02T22:16:22.603Z,47.67
2023-03-02T22:19:29.390Z,50.20
2023-03-02T22:22:23.168Z,47.93
2023-03-02T22:25:16.101Z,45.97
2023-03-02T22:28:01.706Z,49.40
2023-03-02T22:30:48.159Z,48.77
2023-03-02T22:33:34.005Z,40.23
2023-03-02T22:36:22.734Z,45.93
2023-03-02T22:39:15.392Z,49.37
2023-03-02T22:42:12.183Z,46.63
2023-03-02T22:45:12.938Z,44.20
2023-03-02T22:47:59.421Z,52.17
2023-03-02T22:50:46.888Z,48.10
2023-03-02T22:53:43.323Z,45.30
2023-03-02T22:56:36.896Z,43.70
2023-03-02T22:59:25.195Z,50.07
2023-03-02T23:02:18.248Z,48.40
2023-03-02T23:05:28.350Z,44.70
2023-03-02T23:08:24.424Z,43.57
2023-03-02T23:11:16.607Z,43.60
2023-03-02T23:14:07.104Z,43.97
2023-03-02T23:17:16.945Z,44.33
2023-03-02T23:20:03.982Z,51.33
2023-03-02T23:22:50.077Z,50.83
2023-03-02T23:25:35.619Z,50.03
2023-03-02T23:28:21.170Z,50.97
2023-03-02T23:31:07.085Z,45.50
2023-03-02T23:33:52.396Z,51.10
2023-03-02T23:36:38.146Z,49.77
2023-03-02T23:39:23.787Z,47.37
2023-03-02T23:42:09.251Z,42.10
2023-03-02T23:44:55.661Z,43.27
2023-03-02T23:47:41.089Z,46.20
2023-03-02T23:50:26.562Z,49.73
2023-03-02T23:53:12.302Z,51.47
2023-03-02T23:55:57.700Z,46.40
2023-03-02T23:58:43.047Z,46.00
